Time;durP1;ratioP1;P1;durP2;ratioP2;P2;SDS_P1;SDS_P2;PMS_P1;PMS_P2;Temp;Humidity;BMP_temperature;BMP_pressure;BME280_temperature;BME280_humidity;BME280_pressure;Samples;Min_cycle;Max_cycle;Signal;HPM_P1;HPM_P2
2023/12/04 00:00:11;;;;;;;38.25;24.52;;;;;;;-0.83;100.00;101280.66;1029896;28;20333;-91
2023/12/04 00:00:45;;;;;;;34.17;23.83;;;;;;;-0.88;100.00;101280.22;1036461;28;20413;-90
2023/12/04 00:01:17;;;;;;;35.60;23.75;;;;;;;-0.80;100.00;101284.81;1037306;28;20400;-90
2023/12/04 00:01:49;;;;;;;41.97;25.40;;;;;;;-0.80;100.00;101275.19;1032533;28;20384;-91
2023/12/04 00:02:21;;;;;;;42.15;26.23;;;;;;;-0.77;100.00;101279.31;1030119;28;20313;-91
2023/12/04 00:02:54;;;;;;;45.13;26.80;;;;;;;-0.84;100.00;101276.38;1028177;28;20322;-88
2023/12/04 00:03:26;;;;;;;37.90;25.42;;;;;;;-0.83;100.00;101280.66;1029651;28;20301;-89
2023/12/04 00:03:58;;;;;;;38.20;24.88;;;;;;;-0.83;100.00;101275.41;1032752;28;20360;-92
2023/12/04 00:04:29;;;;;;;35.13;24.83;;;;;;;-0.72;100.00;101282.38;1035560;28;20305;-89
2023/12/04 00:05:01;;;;;;;38.10;26.13;;;;;;;-0.75;100.00;101273.00;1030819;28;20313;-93
2023/12/04 00:05:33;;;;;;;37.67;25.63;;;;;;;-0.79;100.00;101270.78;1032814;28;20294;-93
2023/12/04 00:06:05;;;;;;;41.90;25.50;;;;;;;-0.75;100.00;101272.16;1029740;28;20384;-92
2023/12/04 00:06:37;;;;;;;37.88;24.77;;;;;;;-0.69;100.00;101269.00;1029030;28;20804;-91
2023/12/04 00:07:09;;;;;;;39.78;26.98;;;;;;;-0.76;100.00;101276.56;1031863;28;20392;-92
2023/12/04 00:07:41;;;;;;;38.40;25.20;;;;;;;-0.73;100.00;101259.78;1040491;28;20319;-91
2023/12/04 00:08:12;;;;;;;35.15;23.90;;;;;;;-0.75;100.00;101267.75;1038261;28;20301;-92
2023/12/04 00:08:44;;;;;;;35.42;24.70;;;;;;;-0.74;100.00;101264.19;1037045;28;20327;-90
2023/12/04 00:09:16;;;;;;;35.53;23.77;;;;;;;-0.74;100.00;101268.59;1036693;28;20303;-90
2023/12/04 00:09:48;;;;;;;34.55;23.85;;;;;;;-0.77;100.00;101264.44;1028574;28;20485;-91
2023/12/04 00:10:20;;;;;;;38.10;24.83;;;;;;;-0.72;100.00;101264.06;1032872;28;20305;-91
2023/12/04 00:10:54;;;;;;;35.08;24.42;;;;;;;-0.67;100.00;101262.69;1025439;28;20665;-90
2023/12/04 00:11:25;;;;;;;39.65;25.33;;;;;;;-0.74;100.00;101263.34;1031585;28;20309;-91
2023/12/04 00:11:58;;;;;;;39.33;25.13;;;;;;;-0.84;100.00;101257.25;1036787;28;20300;-91
2023/12/04 00:12:30;;;;;;;38.85;23.33;;;;;;;-0.69;100.00;101258.56;1029883;28;20417;-90
2023/12/04 00:13:02;;;;;;;37.72;25.13;;;;;;;-0.63;100.00;101260.63;1031724;28;20834;-90
2023/12/04 00:13:34;;;;;;;36.80;22.75;;;;;;;-0.82;100.00;101257.94;1033049;28;20301;-92
2023/12/04 00:14:06;;;;;;;34.97;23.95;;;;;;;-0.70;100.00;101259.50;1028859;28;20348;-91
2023/12/04 00:14:37;;;;;;;42.10;25.70;;;;;;;-0.78;100.00;101267.19;1031229;28;20317;-91
2023/12/04 00:15:09;;;;;;;41.80;26.13;;;;;;;-0.88;100.00;101261.09;1036224;28;20307;-90
2023/12/04 00:15:41;;;;;;;35.70;25.33;;;;;;;-0.82;100.00;101258.78;1033973;28;20335;-90
2023/12/04 00:16:13;;;;;;;42.45;25.15;;;;;;;-0.84;100.00;101257.25;1041802;28;20300;-90
2023/12/04 00:16:44;;;;;;;35.65;25.05;;;;;;;-0.81;100.00;101263.06;1037409;28;20297;-91
2023/12/04 00:17:16;;;;;;;40.30;25.80;;;;;;;-0.70;100.00;101264.75;1028808;28;20316;-90
2023/12/04 00:17:48;;;;;;;39.28;25.20;;;;;;;-0.81;100.00;101262.25;1031319;28;20324;-91
2023/12/04 00:18:20;;;;;;;39.22;24.88;;;;;;;-0.73;100.00;101259.78;1033873;28;20297;-90
2023/12/04 00:18:52;;;;;;;41.38;25.33;;;;;;;-0.77;100.00;101258.41;1031701;28;20309;-91
2023/12/04 00:19:23;;;;;;;35.17;24.13;;;;;;;-0.82;100.00;101261.41;1027756;28;20313;-91
2023/12/04 00:19:55;;;;;;;41.38;25.73;;;;;;;-0.89;100.00;101254.22;1032675;28;20392;-91
2023/12/04 00:20:27;;;;;;;34.22;22.08;;;;;;;-0.80;100.00;101258.66;1033069;28;20316;-89
2023/12/04 00:20:58;;;;;;;35.28;23.65;;;;;;;-0.89;100.00;101256.81;1033019;28;20774;-91
2023/12/04 00:21:30;;;;;;;35.85;24.50;;;;;;;-0.87;100.00;101257.50;1033171;28;20818;-92
2023/12/04 00:22:02;;;;;;;36.15;24.33;;;;;;;-0.81;100.00;101251.78;1030102;28;20812;-90
2023/12/04 00:22:33;;;;;;;40.03;26.88;;;;;;;-0.77;100.00;101256.59;1033509;28;20305;-90
2023/12/04 00:23:05;;;;;;;37.92;24.98;;;;;;;-0.82;100.00;101250.94;1031164;28;20668;-91
2023/12/04 00:23:37;;;;;;;39.72;25.76;;;;;;;-0.71;100.00;101253.47;1029053;28;20301;-90
2023/12/04 00:24:08;;;;;;;40.80;23.50;;;;;;;-0.75;100.00;101256.47;1034071;28;20432;-91
2023/12/04 00:24:40;;;;;;;40.15;24.40;;;;;;;-0.87;100.00;101252.28;1025304;29;20864;-91
2023/12/04 00:25:11;;;;;;;39.00;23.90;;;;;;;-0.80;100.00;101258.66;1033207;28;20661;-90
2023/12/04 00:25:43;;;;;;;35.42;23.80;;;;;;;-0.79;100.00;101250.69;1033037;28;20308;-91
2023/12/04 00:26:15;;;;;;;39.67;22.70;;;;;;;-0.80;100.00;101249.03;1033480;28;20452;-90
2023/12/04 00:26:47;;;;;;;33.13;22.95;;;;;;;-0.77;100.00;101253.16;1034480;28;20431;-91
2023/12/04 00:27:19;;;;;;;33.45;22.52;;;;;;;-0.78;100.00;101247.09;1033471;28;20829;-91
2023/12/04 00:27:50;;;;;;;40.95;24.92;;;;;;;-0.71;100.00;101252.63;1030734;28;20306;-89
2023/12/04 00:28:22;;;;;;;39.35;23.35;;;;;;;-0.77;100.00;101248.75;1033526;28;20356;-91
2023/12/04 00:28:54;;;;;;;37.28;23.35;;;;;;;-0.77;100.00;101253.16;1030707;28;21331;-89
2023/12/04 00:29:27;;;;;;;36.85;23.77;;;;;;;-0.83;100.00;101249.25;1027782;28;20310;-90
2023/12/04 00:29:58;;;;;;;36.33;23.90;;;;;;;-0.73;100.00;101246.72;1029161;28;20306;-90
2023/12/04 00:30:30;;;;;;;37.33;24.15;;;;;;;-0.60;100.00;101247.28;1028015;28;20300;-90
2023/12/04 00:31:02;;;;;;;37.08;24.15;;;;;;;-0.55;100.00;101250.31;1042299;28;20304;-90
2023/12/04 00:31:33;;;;;;;39.65;23.17;;;;;;;-0.61;100.00;101245.63;1038549;28;20304;-90
2023/12/04 00:32:05;;;;;;;36.08;24.23;;;;;;;-0.69;100.00;101243.69;1040807;28;20296;-90
2023/12/04 00:32:37;;;;;;;33.60;22.38;;;;;;;-0.58;100.00;101241.91;1028575;28;20622;-90
2023/12/04 00:33:08;;;;;;;37.60;24.42;;;;;;;-0.56;100.00;101246.03;1031917;28;20384;-91
2023/12/04 00:33:40;;;;;;;35.03;24.15;;;;;;;-0.61;100.00;101248.25;1042621;28;20315;-90
2023/12/04 00:34:12;;;;;;;37.42;23.20;;;;;;;-0.81;100.00;101247.38;1029864;28;20336;-91
2023/12/04 00:34:44;;;;;;;37.35;23.55;;;;;;;-0.67;100.00;101238.31;1028680;28;20828;-91
2023/12/04 00:35:15;;;;;;;38.33;22.67;;;;;;;-0.70;100.00;101243.81;1037328;28;20305;-91
2023/12/04 00:35:47;;;;;;;34.63;23.02;;;;;;;-0.74;100.00;101243.25;1032941;28;20312;-91
2023/12/04 00:36:19;;;;;;;34.58;22.92;;;;;;;-0.76;100.00;101239.13;1029693;28;20306;-90
2023/12/04 00:36:51;;;;;;;32.22;22.70;;;;;;;-0.65;100.00;101239.00;1022085;28;20295;-91
2023/12/04 00:37:22;;;;;;;34.22;22.83;;;;;;;-0.75;100.00;101246.00;1023705;28;20382;-91
2023/12/04 00:37:54;;;;;;;31.88;21.98;;;;;;;-0.75;100.00;101249.47;1032737;28;20293;-91
2023/12/04 00:38:26;;;;;;;35.10;23.58;;;;;;;-0.67;100.00;101233.91;1032922;28;20676;-90
2023/12/04 00:38:57;;;;;;;35.60;22.73;;;;;;;-0.69;100.00;101235.00;1029739;28;20316;-91
2023/12/04 00:39:29;;;;;;;35.35;23.63;;;;;;;-0.63;100.00;101244.94;1033364;28;20309;-91
2023/12/04 00:40:00;;;;;;;31.50;23.00;;;;;;;-0.63;100.00;101230.06;1033277;28;20309;-90
2023/12/04 00:40:32;;;;;;;38.13;23.38;;;;;;;-0.76;100.00;101239.13;1034169;28;20299;-90
2023/12/04 00:41:05;;;;;;;37.58;23.45;;;;;;;-0.57;100.00;101233.09;1027829;28;20291;-89
2023/12/04 00:41:36;;;;;;;37.63;23.02;;;;;;;-0.73;100.00;101239.69;1025451;28;20319;-90
2023/12/04 00:42:10;;;;;;;40.55;23.38;;;;;;;-0.57;100.00;101239.16;1028344;28;20294;-90
2023/12/04 00:42:42;;;;;;;31.38;21.65;;;;;;;-0.71;100.00;101243.00;1033409;28;20376;-91
2023/12/04 00:43:13;;;;;;;35.88;22.27;;;;;;;-0.59;100.00;101235.84;1031899;28;20336;-90
2023/12/04 00:43:45;;;;;;;34.78;22.95;;;;;;;-0.49;100.00;101235.91;1032594;28;20301;-90
2023/12/04 00:44:17;;;;;;;35.33;22.67;;;;;;;-0.55;100.00;101239.03;1030421;28;20405;-91
2023/12/04 00:44:48;;;;;;;31.63;21.92;;;;;;;-0.58;100.00;101234.88;1028600;28;20323;-91
2023/12/04 00:45:20;;;;;;;34.28;23.17;;;;;;;-0.59;100.00;101240.25;1032507;28;20308;-91
2023/12/04 00:45:52;;;;;;;36.30;22.90;;;;;;;-0.70;100.00;101233.34;1032566;28;20812;-90
2023/12/04 00:46:23;;;;;;;34.55;22.13;;;;;;;-0.78;100.00;101231.41;1026465;28;20315;-90
2023/12/04 00:46:55;;;;;;;34.88;22.05;;;;;;;-0.62;100.00;101233.50;1037609;28;20902;-91
2023/12/04 00:47:27;;;;;;;46.10;24.63;;;;;;;-0.67;100.00;101235.69;1034060;28;20301;-92
2023/12/04 00:47:58;;;;;;;31.33;22.40;;;;;;;-0.76;100.00;101231.28;1032211;28;20305;-90
2023/12/04 00:48:30;;;;;;;34.25;22.35;;;;;;;-0.78;100.00;101235.81;1028108;28;20870;-91
2023/12/04 00:49:02;;;;;;;34.85;20.77;;;;;;;-0.60;100.00;101234.19;1033907;28;20363;-90
2023/12/04 00:49:34;;;;;;;43.55;22.92;;;;;;;-0.56;100.00;101229.53;1034206;28;20305;-90
2023/12/04 00:50:06;;;;;;;36.13;22.80;;;;;;;-0.66;100.00;101235.56;1033948;28;20322;-91
2023/12/04 00:50:37;;;;;;;35.05;21.13;;;;;;;-0.66;100.00;101226.88;1033628;28;20305;-90
2023/12/04 00:51:09;;;;;;;30.30;20.77;;;;;;;-0.67;100.00;101227.84;1036974;28;20293;-90
2023/12/04 00:51:41;;;;;;;33.58;22.75;;;;;;;-0.61;100.00;101232.53;1038315;28;20320;-91
2023/12/04 00:52:12;;;;;;;33.90;21.35;;;;;;;-0.76;100.00;101228.66;1038314;28;20315;-92
2023/12/04 00:52:44;;;;;;;35.10;21.75;;;;;;;-0.53;100.00;101224.06;1036701;28;20722;-90
2023/12/04 00:53:16;;;;;;;29.10;21.75;;;;;;;-0.65;100.00;101228.53;1030179;28;20313;-91
2023/12/04 00:53:47;;;;;;;33.72;21.67;;;;;;;-0.67;100.00;101223.44;1028843;28;21003;-92
2023/12/04 00:54:19;;;;;;;35.10;20.88;;;;;;;-0.71;100.00;101226.47;1036295;28;20304;-90
2023/12/04 00:54:51;;;;;;;33.03;21.55;;;;;;;-0.60;100.00;101222.91;1037698;28;20308;-91
2023/12/04 00:55:22;;;;;;;35.75;22.20;;;;;;;-0.49;100.00;101228.88;1029913;28;20314;-91
2023/12/04 00:55:54;;;;;;;30.67;20.67;;;;;;;-0.60;100.00;101222.91;1027690;28;20816;-91
2023/12/04 00:56:25;;;;;;;33.60;21.13;;;;;;;-0.57;100.00;101223.47;1032571;28;20301;-91
2023/12/04 00:56:58;;;;;;;30.88;19.77;;;;;;;-0.63;100.00;101214.38;1025723;28;20305;-91
2023/12/04 00:57:29;;;;;;;29.27;20.33;;;;;;;-0.75;100.00;101222.47;1029212;28;20298;-91
2023/12/04 00:58:01;;;;;;;32.85;21.88;;;;;;;-0.64;100.00;101219.72;1031128;28;20298;-91
2023/12/04 00:58:33;;;;;;;34.53;23.17;;;;;;;-0.69;100.00;101216.69;1029909;28;20309;-91
2023/12/04 00:59:06;;;;;;;32.33;21.73;;;;;;;-0.55;100.00;101220.72;1028739;28;20302;-91
2023/12/04 00:59:38;;;;;;;36.72;21.70;;;;;;;-0.75;100.00;101214.63;1029769;28;20298;-92
2023/12/04 01:00:10;;;;;;;31.88;22.77;;;;;;;-0.69;100.00;101222.75;1034269;28;20312;-91
2023/12/04 01:00:42;;;;;;;31.65;20.00;;;;;;;-0.58;100.00;101227.03;1031379;28;20356;-91
2023/12/04 01:01:13;;;;;;;32.28;20.95;;;;;;;-0.68;100.00;101215.75;1032790;28;20293;-91
2023/12/04 01:01:45;;;;;;;31.30;20.63;;;;;;;-0.67;100.00;101212.16;1031242;28;20361;-91
2023/12/04 01:02:17;;;;;;;30.52;21.95;;;;;;;-0.65;100.00;101220.69;1031338;28;20939;-91
2023/12/04 01:02:48;;;;;;;31.88;21.20;;;;;;;-0.60;100.00;101221.13;1031506;28;20353;-91
2023/12/04 01:03:20;;;;;;;36.88;21.67;;;;;;;-0.68;100.00;101220.97;1030340;28;20321;-91
2023/12/04 01:03:51;;;;;;;31.13;20.85;;;;;;;-0.68;100.00;101220.97;1033079;28;20313;-91
2023/12/04 01:04:23;;;;;;;29.65;20.73;;;;;;;-0.68;100.00;101215.75;1033045;28;20309;-92
2023/12/04 01:04:55;;;;;;;31.42;19.50;;;;;;;-0.53;100.00;101208.34;1039759;28;20308;-91
2023/12/04 01:05:27;;;;;;;33.30;19.90;;;;;;;-0.58;100.00;101216.56;1037633;28;20297;-91
2023/12/04 01:05:59;;;;;;;31.80;20.65;;;;;;;-0.52;100.00;101216.06;1029442;28;20290;-91
2023/12/04 01:06:31;;;;;;;31.05;21.48;;;;;;;-0.63;100.00;101205.69;1033170;28;20302;-92
2023/12/04 01:07:02;;;;;;;33.50;21.48;;;;;;;-0.74;100.00;101206.66;1029688;28;20298;-91
2023/12/04 01:07:34;;;;;;;31.58;21.20;;;;;;;-0.77;100.00;101213.94;1038943;28;20301;-92
2023/12/04 01:08:06;;;;;;;32.20;19.88;;;;;;;-0.66;100.00;101214.63;1034965;28;20332;-91
2023/12/04 01:08:37;;;;;;;32.92;20.00;;;;;;;-0.51;100.00;101202.00;1028282;28;20306;-91
2023/12/04 01:09:09;;;;;;;35.53;22.63;;;;;;;-0.55;100.00;101210.25;1028767;28;20784;-92
2023/12/04 01:09:40;;;;;;;27.52;19.30;;;;;;;-0.57;100.00;101210.38;1026266;28;20298;-91
2023/12/04 01:10:12;;;;;;;32.53;20.27;;;;;;;-0.60;100.00;101210.66;1034349;28;20684;-91
2023/12/04 01:10:44;;;;;;;34.83;21.77;;;;;;;-0.74;100.00;101213.66;1041775;28;20308;-91
2023/12/04 01:11:17;;;;;;;27.23;20.15;;;;;;;-0.63;100.00;101213.53;1032065;28;20339;-92
2023/12/04 01:11:48;;;;;;;37.38;21.00;;;;;;;-0.59;100.00;101214.91;1028364;28;20306;-91
2023/12/04 01:12:21;;;;;;;30.02;20.67;;;;;;;-0.67;100.00;101214.78;1032876;28;20305;-92
2023/12/04 01:12:52;;;;;;;30.70;18.95;;;;;;;-0.52;100.00;101218.69;1026711;28;20309;-92
2023/12/04 01:13:24;;;;;;;33.92;20.48;;;;;;;-0.63;100.00;101216.16;1034497;28;20301;-92
2023/12/04 01:13:55;;;;;;;31.63;21.23;;;;;;;-0.50;100.00;101213.31;1029598;28;20378;-92
2023/12/04 01:14:27;;;;;;;32.42;20.08;;;;;;;-0.65;100.00;101218.91;1028819;28;20302;-91
2023/12/04 01:14:59;;;;;;;33.50;20.85;;;;;;;-0.75;100.00;101214.63;1037581;28;20313;-91
2023/12/04 01:15:30;;;;;;;32.88;21.30;;;;;;;-0.59;100.00;101217.53;1034143;28;20297;-92
2023/12/04 01:16:02;;;;;;;34.72;21.38;;;;;;;-0.63;100.00;101217.00;1027760;28;20805;-92
2023/12/04 01:16:34;;;;;;;31.55;21.33;;;;;;;-0.52;100.00;101210.84;1030351;28;20357;-91
2023/12/04 01:17:06;;;;;;;40.90;23.00;;;;;;;-0.44;100.00;101218.81;1031282;28;20306;-91
2023/12/04 01:17:38;;;;;;;33.05;21.38;;;;;;;-0.48;100.00;101220.06;1038163;28;20411;-91
2023/12/04 01:18:09;;;;;;;30.98;19.50;;;;;;;-0.43;100.00;101220.47;1030815;28;20314;-91
2023/12/04 01:18:41;;;;;;;32.30;21.20;;;;;;;-0.43;100.00;101220.47;1032972;28;20302;-92
2023/12/04 01:19:13;;;;;;;36.22;21.52;;;;;;;-0.54;100.00;101223.22;1040093;28;20920;-92
2023/12/04 01:19:45;;;;;;;32.40;20.88;;;;;;;-0.62;100.00;101215.19;1033456;28;20634;-92
2023/12/04 01:20:17;;;;;;;27.63;19.90;;;;;;;-0.46;100.00;101215.50;1038670;28;20372;-91
2023/12/04 01:20:48;;;;;;;30.33;19.63;;;;;;;-0.39;100.00;101216.63;1029472;28;20310;-91
2023/12/04 01:21:20;;;;;;;30.38;20.85;;;;;;;-0.58;100.00;101221.81;1028221;28;20310;-91
2023/12/04 01:21:52;;;;;;;27.80;19.60;;;;;;;-0.59;100.00;101214.91;1032484;28;20309;-91
2023/12/04 01:22:24;;;;;;;31.30;21.00;;;;;;;-0.56;100.00;101217.28;1037536;28;20413;-91
2023/12/04 01:22:56;;;;;;;28.27;17.92;;;;;;;-0.45;100.00;101218.97;1033332;28;20305;-92
2023/12/04 01:23:28;;;;;;;30.10;19.40;;;;;;;-0.49;100.00;101218.41;1037549;28;20305;-92
2023/12/04 01:23:59;;;;;;;29.50;20.60;;;;;;;-0.55;100.00;101216.31;1036614;28;20814;-91
2023/12/04 01:24:32;;;;;;;32.55;19.80;;;;;;;-0.66;100.00;101204.19;1039974;28;20300;-91
2023/12/04 01:25:05;;;;;;;32.60;19.98;;;;;;;-0.44;100.00;101210.16;1042664;28;20364;-91
2023/12/04 01:25:36;;;;;;;32.17;20.73;;;;;;;-0.47;100.00;101207.81;1027469;28;20330;-91
2023/12/04 01:26:10;;;;;;;29.80;19.67;;;;;;;-0.56;100.00;101209.41;1033184;28;20320;-91
2023/12/04 01:26:41;;;;;;;33.22;19.95;;;;;;;-0.59;100.00;101204.47;1032605;28;20315;-91
2023/12/04 01:27:13;;;;;;;35.60;19.80;;;;;;;-0.74;100.00;101211.88;1028122;28;20300;-91
2023/12/04 01:27:45;;;;;;;29.50;18.92;;;;;;;-0.59;100.00;101207.06;1025691;28;20295;-92
2023/12/04 01:28:17;;;;;;;31.83;19.60;;;;;;;-0.62;100.00;101200.31;1033609;28;20348;-91
2023/12/04 01:28:48;;;;;;;29.40;20.15;;;;;;;-0.67;100.00;101201.69;1032742;28;20392;-91
2023/12/04 01:29:20;;;;;;;34.53;20.45;;;;;;;-0.57;100.00;101207.75;1032257;28;20324;-91
2023/12/04 01:29:52;;;;;;;30.50;19.50;;;;;;;-0.52;100.00;101204.78;1033082;28;20387;-92
2023/12/04 01:30:23;;;;;;;30.88;19.70;;;;;;;-0.71;100.00;101206.38;1030367;28;20370;-92
2023/12/04 01:30:55;;;;;;;28.25;18.92;;;;;;;-0.59;100.00;101199.22;1033333;28;20312;-92
2023/12/04 01:31:27;;;;;;;33.13;21.98;;;;;;;-0.52;100.00;101199.53;1025387;28;20347;-94
2023/12/04 01:31:59;;;;;;;32.47;21.35;;;;;;;-0.68;100.00;101205.28;1026392;28;20302;-91
2023/12/04 01:32:30;;;;;;;29.48;18.60;;;;;;;-0.60;100.00;101202.81;1034100;28;20338;-92
2023/12/04 01:33:02;;;;;;;31.13;19.05;;;;;;;-0.67;100.00;101191.22;1038458;28;20308;-92
2023/12/04 01:33:34;;;;;;;30.35;19.73;;;;;;;-0.56;100.00;101198.94;1029752;28;20302;-92
2023/12/04 01:34:05;;;;;;;27.83;19.27;;;;;;;-0.55;100.00;101195.38;1027461;28;20346;-92
2023/12/04 01:34:37;;;;;;;29.58;20.02;;;;;;;-0.67;100.00;101194.69;1027912;28;20318;-92
2023/12/04 01:35:09;;;;;;;32.55;19.63;;;;;;;-0.70;100.00;101196.75;1029497;28;20306;-92
2023/12/04 01:35:40;;;;;;;30.05;19.27;;;;;;;-0.67;100.00;101196.47;1034226;28;20297;-92
2023/12/04 01:36:13;;;;;;;27.70;19.33;;;;;;;-0.58;100.00;101192.19;1033771;28;20968;-93
2023/12/04 01:36:44;;;;;;;29.10;18.90;;;;;;;-0.62;100.00;101196.88;1037315;28;20315;-92
2023/12/04 01:37:16;;;;;;;30.80;20.42;;;;;;;-0.60;100.00;101192.34;1026064;28;20438;-92
2023/12/04 01:37:47;;;;;;;26.38;19.58;;;;;;;-0.70;100.00;101192.34;1026348;28;20371;-92
2023/12/04 01:38:23;;;;;;;26.98;19.17;;;;;;;-0.80;100.00;101195.91;1035604;28;20293;-93
2023/12/04 01:38:55;;;;;;;29.27;20.17;;;;;;;-0.72;100.00;101201.28;1030123;28;20298;-92
2023/12/04 01:39:27;;;;;;;30.48;18.90;;;;;;;-0.62;100.00;101191.66;1029029;28;20305;-93
2023/12/04 01:39:59;;;;;;;30.33;19.60;;;;;;;-0.63;100.00;101190.81;1032657;28;20331;-92
2023/12/04 01:40:30;;;;;;;29.52;19.63;;;;;;;-0.81;100.00;101186.41;1037312;28;20336;-92
2023/12/04 01:41:02;;;;;;;32.17;19.55;;;;;;;-0.68;100.00;101194.81;1029892;28;20302;-91
2023/12/04 01:41:34;;;;;;;28.52;19.20;;;;;;;-0.64;100.00;101196.19;1028901;28;20320;-91
2023/12/04 01:42:05;;;;;;;30.00;19.27;;;;;;;-0.76;100.00;101192.06;1024722;28;20333;-92
2023/12/04 01:42:37;;;;;;;27.67;19.67;;;;;;;-0.64;100.00;101188.34;1029174;28;20302;-92
2023/12/04 01:43:09;;;;;;;26.55;18.92;;;;;;;-0.57;100.00;101192.06;1030135;28;20891;-92
2023/12/04 01:43:40;;;;;;;34.03;21.20;;;;;;;-0.71;100.00;101187.25;1034501;28;20316;-92
2023/12/04 01:44:12;;;;;;;31.00;20.52;;;;;;;-0.60;100.00;101187.09;1033478;28;20309;-91
2023/12/04 01:44:43;;;;;;;27.40;18.67;;;;;;;-0.54;100.00;101181.34;1036391;28;20300;-91
2023/12/04 01:45:16;;;;;;;25.15;18.73;;;;;;;-0.74;100.00;101180.50;1028300;28;20341;-91
2023/12/04 01:45:49;;;;;;;28.80;19.98;;;;;;;-0.80;100.00;101177.59;1036544;28;20301;-91
2023/12/04 01:46:21;;;;;;;32.08;19.52;;;;;;;-0.78;100.00;101180.91;1029927;28;20305;-93
2023/12/04 01:46:52;;;;;;;31.38;20.88;;;;;;;-0.77;100.00;101174.72;1033169;28;20305;-92
2023/12/04 01:47:24;;;;;;;28.98;19.95;;;;;;;-0.71;100.00;101176.78;1037683;28;20308;-91
2023/12/04 01:47:57;;;;;;;35.88;19.40;;;;;;;-0.60;100.00;101176.66;1033077;28;20316;-91
2023/12/04 01:48:28;;;;;;;27.95;19.67;;;;;;;-0.55;100.00;101177.06;1031197;28;20389;-91
2023/12/04 01:49:03;;;;;;;31.00;20.60;;;;;;;-0.62;100.00;101174.16;1033712;28;20344;-92
2023/12/04 01:49:34;;;;;;;26.25;18.40;;;;;;;-0.72;100.00;101175.13;1026043;28;20342;-91
2023/12/04 01:50:07;;;;;;;27.83;19.45;;;;;;;-0.74;100.00;101169.19;1029226;28;20310;-91
2023/12/04 01:50:39;;;;;;;28.67;20.52;;;;;;;-0.72;100.00;101173.34;1033278;28;20309;-91
2023/12/04 01:51:12;;;;;;;30.20;19.67;;;;;;;-0.71;100.00;101172.38;1025808;28;20315;-90
2023/12/04 01:51:44;;;;;;;30.52;19.23;;;;;;;-0.82;100.00;101169.03;1029720;28;20364;-91
2023/12/04 01:52:16;;;;;;;33.95;19.98;;;;;;;-0.64;100.00;101173.47;1029169;28;20305;-91
2023/12/04 01:52:48;;;;;;;27.83;19.10;;;;;;;-0.75;100.00;101167.56;1029636;28;20305;-92
2023/12/04 01:53:20;;;;;;;28.58;18.13;;;;;;;-0.77;100.00;101164.25;1037785;28;20865;-92
2023/12/04 01:53:51;;;;;;;29.40;20.25;;;;;;;-0.68;100.00;101166.88;1033301;28;20309;-91
2023/12/04 01:54:23;;;;;;;31.27;19.95;;;;;;;-0.63;100.00;101166.47;1033749;28;20327;-91
2023/12/04 01:54:55;;;;;;;28.48;19.02;;;;;;;-0.61;100.00;101164.53;1033872;28;20309;-92
2023/12/04 01:55:28;;;;;;;31.95;20.17;;;;;;;-0.70;100.00;101165.34;1035663;28;20349;-91
2023/12/04 01:56:00;;;;;;;27.83;18.70;;;;;;;-0.73;100.00;101165.63;1033732;28;20304;-91
2023/12/04 01:56:33;;;;;;;26.33;18.52;;;;;;;-0.66;100.00;101162.31;1028865;28;20310;-91
2023/12/04 01:57:05;;;;;;;28.33;17.92;;;;;;;-0.67;100.00;101162.47;1033728;28;20649;-91
2023/12/04 01:57:39;;;;;;;29.23;18.55;;;;;;;-0.67;100.00;101162.47;1033904;28;20345;-91
2023/12/04 01:58:11;;;;;;;29.40;17.85;;;;;;;-0.76;100.00;101160.66;1033067;28;20898;-91
2023/12/04 01:58:43;;;;;;;29.25;18.77;;;;;;;-0.69;100.00;101151.31;1038637;28;20284;-91
2023/12/04 01:59:15;;;;;;;28.45;18.98;;;;;;;-0.71;100.00;101163.69;1033180;28;20308;-92
2023/12/04 01:59:47;;;;;;;26.15;19.08;;;;;;;-0.65;100.00;101157.91;1029499;28;20385;-91
2023/12/04 02:00:20;;;;;;;31.88;19.83;;;;;;;-0.59;100.00;101152.13;1035513;28;20308;-91
2023/12/04 02:00:52;;;;;;;33.08;20.08;;;;;;;-0.63;100.00;101161.22;1031572;28;20376;-91
2023/12/04 02:01:24;;;;;;;33.03;22.05;;;;;;;-0.69;100.00;101153.94;1032144;28;20305;-91
2023/12/04 02:01:56;;;;;;;28.52;19.30;;;;;;;-0.72;100.00;101156.81;1029617;28;20329;-93
2023/12/04 02:02:28;;;;;;;24.13;17.67;;;;;;;-0.61;100.00;101159.28;1029697;28;20638;-91
2023/12/04 02:03:00;;;;;;;26.77;18.17;;;;;;;-0.80;100.00;101159.28;1036695;28;20311;-91
2023/12/04 02:03:33;;;;;;;26.45;18.35;;;;;;;-0.67;100.00;101157.22;1038042;28;20312;-91
2023/12/04 02:04:05;;;;;;;25.65;17.23;;;;;;;-0.65;100.00;101157.91;1033953;28;20314;-92
2023/12/04 02:04:38;;;;;;;23.48;17.60;;;;;;;-0.55;100.00;101153.50;1039067;28;20341;-92
2023/12/04 02:05:11;;;;;;;29.48;20.20;;;;;;;-0.54;100.00;101164.84;1032794;28;20301;-91
2023/12/04 02:05:44;;;;;;;23.45;17.15;;;;;;;-0.73;100.00;101156.00;1027513;28;20302;-90
2023/12/04 02:06:16;;;;;;;24.50;17.52;;;;;;;-0.77;100.00;101154.59;1034056;28;20309;-91
2023/12/04 02:06:48;;;;;;;28.20;18.13;;;;;;;-0.68;100.00;101158.19;1027633;28;20387;-91
2023/12/04 02:07:20;;;;;;;25.52;17.65;;;;;;;-0.76;100.00;101160.66;1029838;28;20696;-92
2023/12/04 02:07:52;;;;;;;25.27;18.17;;;;;;;-0.88;100.00;101162.56;1029163;28;20309;-93
2023/12/04 02:08:24;;;;;;;29.58;19.20;;;;;;;-0.85;100.00;101161.44;1028501;28;20792;-92
2023/12/04 02:08:56;;;;;;;25.65;17.70;;;;;;;-0.58;100.00;101159.03;1025865;28;20299;-91
2023/12/04 02:09:29;;;;;;;25.92;18.40;;;;;;;-0.64;100.00;101154.34;1029255;28;20315;-91
2023/12/04 02:10:01;;;;;;;30.50;19.50;;;;;;;-0.70;100.00;101154.88;1041735;28;20292;-91
2023/12/04 02:10:32;;;;;;;30.85;19.20;;;;;;;-0.67;100.00;101154.63;1033890;28;20312;-91
2023/12/04 02:11:05;;;;;;;25.25;16.98;;;;;;;-0.73;100.00;101155.16;1038050;28;20323;-91
2023/12/04 02:11:36;;;;;;;28.77;18.10;;;;;;;-0.76;100.00;101150.22;1029264;28;20308;-93
2023/12/04 02:12:09;;;;;;;24.25;16.20;;;;;;;-0.78;100.00;101154.75;1027644;28;20694;-93
2023/12/04 02:12:41;;;;;;;25.02;18.75;;;;;;;-0.75;100.00;101151.84;1034105;28;20309;-91
2023/12/04 02:13:12;;;;;;;26.27;17.17;;;;;;;-0.57;100.00;101141.53;1033097;28;20301;-92
2023/12/04 02:14:02;;;;;;;29.50;18.10;;;;;;;-0.66;100.00;101151.03;1039674;28;20774;-91
2023/12/04 02:14:34;;;;;;;24.20;17.15;;;;;;;-0.78;100.00;101147.72;1038101;28;20360;-91
2023/12/04 02:15:06;;;;;;;27.27;17.05;;;;;;;-0.74;100.00;101148.28;1033621;28;20410;-92
2023/12/04 02:15:38;;;;;;;27.13;18.23;;;;;;;-0.76;100.00;101150.22;1033723;28;20320;-91
2023/12/04 02:16:11;;;;;;;26.50;18.10;;;;;;;-0.69;100.00;101148.69;1033797;28;20305;-92
2023/12/04 02:16:44;;;;;;;26.10;17.10;;;;;;;-0.81;100.00;101152.41;1035370;28;20305;-92
2023/12/04 02:17:16;;;;;;;28.70;17.33;;;;;;;-0.74;100.00;101143.03;1029336;28;20306;-91
2023/12/04 02:17:47;;;;;;;27.17;17.60;;;;;;;-0.68;100.00;101145.94;1032924;28;20316;-91
2023/12/04 02:18:20;;;;;;;26.33;17.27;;;;;;;-0.79;100.00;101145.25;1035084;28;20305;-91
2023/12/04 02:18:51;;;;;;;27.30;18.95;;;;;;;-0.64;100.00;101138.66;1028593;28;20360;-91
2023/12/04 02:19:23;;;;;;;27.83;18.25;;;;;;;-0.76;100.00;101144.97;1031518;28;20306;-91
2023/12/04 02:19:55;;;;;;;23.40;17.17;;;;;;;-0.69;100.00;101148.69;1038259;28;20385;-92
2023/12/04 02:20:33;;;;;;;24.50;17.00;;;;;;;-0.58;100.00;101145.13;1030581;28;20304;-91
2023/12/04 02:21:05;;;;;;;30.98;18.70;;;;;;;-0.65;100.00;101144.84;1031747;28;20735;-91
2023/12/04 02:21:37;;;;;;;26.23;18.45;;;;;;;-0.63;100.00;101145.53;1034036;28;20281;-90
2023/12/04 02:22:08;;;;;;;26.08;19.23;;;;;;;-0.72;100.00;101144.56;1033673;28;20301;-91
2023/12/04 02:22:41;;;;;;;24.50;16.80;;;;;;;-0.70;100.00;101147.03;1029995;28;20345;-92
2023/12/04 02:23:12;;;;;;;26.88;18.58;;;;;;;-0.59;100.00;101146.91;1032411;28;20313;-91
2023/12/04 02:23:49;;;;;;;26.08;16.65;;;;;;;-0.63;100.00;101135.06;1035701;28;20311;-92